Time;durP1;ratioP1;P1;durP2;ratioP2;P2;SDS_P1;SDS_P2;PMS_P1;PMS_P2;Temp;Humidity;BMP_temperature;BMP_pressure;BME280_temperature;BME280_humidity;BME280_pressure;Samples;Min_cycle;Max_cycle;Signal;HPM_P1;HPM_P2
2021/04/06 00:01:46;;;;;;;4.13;1.45;;;0.30;66.20;;;;;;5016142;28;20034;-68
2021/04/06 00:04:17;;;;;;;3.25;1.00;;;0.30;66.20;;;;;;5014547;28;20021;-68
2021/04/06 00:06:45;;;;;;;2.05;1.00;;;0.30;66.20;;;;;;5012150;28;20026;-67
2021/04/06 00:09:15;;;;;;;6.22;1.33;;;0.30;66.20;;;;;;5014442;28;20037;-66
2021/04/06 00:11:44;;;;;;;7.85;1.10;;;0.20;66.10;;;;;;5013426;28;20053;-65
2021/04/06 00:14:11;;;;;;;2.15;0.93;;;0.20;66.00;;;;;;5023962;28;20080;-66
2021/04/06 00:16:38;;;;;;;3.10;1.40;;;0.20;66.10;;;;;;5012200;28;20075;-68
2021/04/06 00:19:05;;;;;;;3.22;1.27;;;0.20;66.20;;;;;;5027250;28;20057;-66
2021/04/06 00:21:33;;;;;;;4.70;1.30;;;0.20;66.10;;;;;;5026160;28;20037;-67
2021/04/06 00:24:02;;;;;;;4.60;1.17;;;0.20;66.20;;;;;;5042757;28;20021;-68
2021/04/06 00:26:54;;;;;;;6.93;1.40;;;0.20;66.20;;;;;;5027832;28;20116;-67
2021/04/06 00:29:24;;;;;;;4.97;1.00;;;0.10;66.30;;;;;;5024034;28;20025;-68
2021/04/06 00:31:55;;;;;;;3.45;1.00;;;0.20;66.40;;;;;;5028393;28;20025;-67
2021/04/06 00:34:23;;;;;;;2.78;1.08;;;0.20;66.30;;;;;;5019515;28;20025;-68
2021/04/06 00:36:54;;;;;;;3.65;1.00;;;0.20;66.20;;;;;;5017569;28;20026;-67
2021/04/06 00:39:32;;;;;;;3.78;1.00;;;0.10;66.20;;;;;;5023148;28;20022;-68
2021/04/06 00:42:06;;;;;;;3.17;0.93;;;0.10;66.30;;;;;;5014521;28;20040;-68
2021/04/06 00:44:36;;;;;;;4.50;1.27;;;0.10;66.20;;;;;;5029466;28;20040;-68
2021/04/06 00:47:03;;;;;;;2.65;1.23;;;0.10;66.30;;;;;;5025603;28;20028;-67
2021/04/06 00:49:30;;;;;;;3.20;1.33;;;0.10;66.10;;;;;;5031246;28;20033;-67
2021/04/06 00:51:57;;;;;;;4.35;1.30;;;0.10;66.30;;;;;;5027604;28;20108;-67
2021/04/06 00:54:24;;;;;;;2.35;1.23;;;0.00;66.20;;;;;;5013512;28;20040;-68
2021/04/06 00:56:56;;;;;;;2.20;1.10;;;0.00;66.30;;;;;;5014508;28;20500;-68
2021/04/06 00:59:22;;;;;;;1.25;0.88;;;0.00;66.40;;;;;;5012360;28;20371;-68
2021/04/06 01:01:52;;;;;;;2.33;1.20;;;0.00;66.30;;;;;;5015865;28;20021;-68
2021/04/06 01:04:22;;;;;;;4.10;1.45;;;-0.10;66.30;;;;;;5026053;28;20032;-67
2021/04/06 01:07:06;;;;;;;4.15;1.20;;;-0.10;66.50;;;;;;5011962;28;20038;-68
2021/04/06 01:09:33;;;;;;;3.42;1.15;;;-0.20;66.50;;;;;;5005110;28;20508;-66
2021/04/06 01:12:02;;;;;;;4.35;1.38;;;-0.20;66.50;;;;;;5029082;28;20033;-67
2021/04/06 01:14:30;;;;;;;1.60;1.02;;;-0.20;66.70;;;;;;5013092;28;20029;-68
2021/04/06 01:16:56;;;;;;;3.78;1.55;;;-0.20;66.70;;;;;;5012644;28;20077;-68
2021/04/06 01:19:24;;;;;;;3.47;1.13;;;-0.20;66.60;;;;;;5012917;28;20113;-67
2021/04/06 01:21:50;;;;;;;2.85;1.10;;;-0.20;66.50;;;;;;5010466;28;20021;-67
2021/04/06 01:24:15;;;;;;;4.18;1.25;;;-0.20;66.60;;;;;;5010930;28;20087;-67
2021/04/06 01:26:42;;;;;;;2.97;1.40;;;-0.20;66.70;;;;;;5020032;28;20033;-67
2021/04/06 01:29:07;;;;;;;3.03;1.30;;;-0.20;66.80;;;;;;5023355;28;20037;-65
2021/04/06 01:31:34;;;;;;;2.72;1.20;;;-0.30;66.70;;;;;;5004999;28;20040;-68
2021/04/06 01:34:02;;;;;;;5.90;1.10;;;-0.20;66.80;;;;;;5009403;28;20075;-67
2021/04/06 01:36:28;;;;;;;1.50;1.10;;;-0.20;66.90;;;;;;5009381;28;20033;-67
2021/04/06 01:38:54;;;;;;;2.60;1.33;;;-0.20;66.80;;;;;;5009365;28;20073;-67
2021/04/06 01:41:21;;;;;;;3.08;1.13;;;-0.20;66.80;;;;;;5015503;28;20064;-67
2021/04/06 01:43:48;;;;;;;5.93;1.20;;;-0.30;67.00;;;;;;5004997;28;20425;-67
2021/04/06 01:46:20;;;;;;;3.83;1.33;;;-0.30;67.00;;;;;;5010659;28;20053;-67
2021/04/06 01:48:47;;;;;;;6.13;1.20;;;-0.40;67.10;;;;;;5007714;28;20121;-65
2021/04/06 01:51:15;;;;;;;1.35;1.25;;;-0.30;67.20;;;;;;5028198;28;20033;-66
2021/04/06 01:53:41;;;;;;;4.20;1.40;;;-0.30;67.50;;;;;;5026581;28;20057;-67
2021/04/06 01:56:27;;;;;;;3.00;1.33;;;-0.40;67.40;;;;;;5024677;28;20401;-67
2021/04/06 01:58:58;;;;;;;4.93;1.20;;;-0.40;67.40;;;;;;5013934;28;20021;-66
2021/04/06 02:01:24;;;;;;;3.90;1.13;;;-0.40;67.60;;;;;;5027826;28;20038;-67
2021/04/06 02:04:04;;;;;;;4.50;1.50;;;-0.40;67.60;;;;;;5005867;28;20029;-66
2021/04/06 02:06:34;;;;;;;2.45;0.93;;;-0.40;68.30;;;;;;5016078;28;20032;-67
2021/04/06 02:09:00;;;;;;;6.60;1.75;;;-0.40;67.90;;;;;;5025206;28;20027;-67
2021/04/06 02:11:34;;;;;;;6.07;1.45;;;-0.50;68.00;;;;;;5012207;28;20032;-67
2021/04/06 02:14:04;;;;;;;5.53;1.13;;;-0.50;68.20;;;;;;5020241;28;20030;-67
2021/04/06 02:16:41;;;;;;;2.72;1.08;;;-0.50;68.60;;;;;;5006656;28;20044;-67
2021/04/06 02:19:07;;;;;;;1.40;1.05;;;-0.50;68.50;;;;;;5011003;28;20029;-66
2021/04/06 02:21:33;;;;;;;0.93;0.93;;;-0.60;68.50;;;;;;5012765;28;20030;-66
2021/04/06 02:23:58;;;;;;;1.38;1.05;;;-0.50;68.60;;;;;;5013465;28;20040;-67
2021/04/06 02:26:24;;;;;;;2.63;1.38;;;-0.50;68.60;;;;;;5014455;28;20022;-66
2021/04/06 02:28:53;;;;;;;4.78;1.35;;;-0.40;68.80;;;;;;5008724;28;20115;-66
2021/04/06 02:31:19;;;;;;;5.15;1.30;;;-0.40;68.70;;;;;;5010161;28;20037;-66
2021/04/06 02:33:46;;;;;;;2.97;1.38;;;-0.30;68.60;;;;;;5002411;28;20083;-66
2021/04/06 02:36:12;;;;;;;3.53;1.20;;;-0.30;68.70;;;;;;5009589;28;20098;-66
2021/04/06 02:38:46;;;;;;;3.25;1.33;;;-0.30;69.00;;;;;;5007256;28;20117;-66
2021/04/06 02:41:17;;;;;;;5.03;1.52;;;-0.30;68.60;;;;;;5007868;28;20030;-66
2021/04/06 02:43:44;;;;;;;3.97;1.30;;;-0.20;68.60;;;;;;5017830;28;20067;-66
2021/04/06 02:46:11;;;;;;;3.10;1.30;;;-0.30;68.50;;;;;;5019618;28;20033;-65
2021/04/06 02:48:37;;;;;;;3.53;1.20;;;-0.20;68.80;;;;;;5001137;28;20025;-66
2021/04/06 02:51:03;;;;;;;4.35;1.50;;;-0.20;68.70;;;;;;5010594;28;20044;-66
2021/04/06 02:53:31;;;;;;;2.88;1.30;;;-0.20;68.70;;;;;;5009365;28;20040;-66
2021/04/06 02:55:57;;;;;;;3.58;1.73;;;-0.20;68.90;;;;;;5008060;28;20409;-66
2021/04/06 02:58:23;;;;;;;3.95;1.20;;;-0.20;68.80;;;;;;5027601;28;20022;-66
2021/04/06 03:00:49;;;;;;;6.18;1.33;;;-0.20;69.20;;;;;;5001671;28;20022;-66
2021/04/06 03:03:20;;;;;;;3.47;1.40;;;-0.20;69.00;;;;;;5002102;28;20328;-65
2021/04/06 03:05:46;;;;;;;5.50;1.45;;;-0.20;69.10;;;;;;5027704;28;20037;-66
2021/04/06 03:08:12;;;;;;;3.63;1.38;;;-0.10;69.00;;;;;;5021003;28;20127;-66
2021/04/06 03:10:38;;;;;;;5.63;1.50;;;-0.10;69.00;;;;;;5011160;28;20116;-65
2021/04/06 03:13:11;;;;;;;2.78;1.10;;;-0.10;69.00;;;;;;5010533;28;20029;-66
2021/04/06 03:15:39;;;;;;;3.80;1.35;;;-0.10;68.90;;;;;;5016183;28;20105;-66
2021/04/06 03:18:05;;;;;;;4.43;1.83;;;-0.10;68.90;;;;;;5011738;28;20030;-67
2021/04/06 03:20:34;;;;;;;5.13;1.70;;;-0.10;68.80;;;;;;5010243;28;20512;-65
2021/04/06 03:23:03;;;;;;;4.65;1.73;;;-0.10;69.00;;;;;;5016873;28;20037;-67
2021/04/06 03:25:35;;;;;;;2.17;1.10;;;-0.10;68.90;;;;;;5034571;28;20030;-67
2021/04/06 03:28:09;;;;;;;3.70;1.17;;;-0.10;69.00;;;;;;5026479;28;20034;-67
2021/04/06 03:30:35;;;;;;;8.35;1.27;;;-0.10;69.10;;;;;;5022562;28;20033;-67
2021/04/06 03:33:05;;;;;;;2.95;1.30;;;-0.10;69.10;;;;;;5010791;28;20030;-67
2021/04/06 03:35:32;;;;;;;8.07;1.42;;;-0.10;69.20;;;;;;5008935;28;20083;-67
2021/04/06 03:38:00;;;;;;;4.05;1.20;;;-0.10;69.10;;;;;;5018440;28;20029;-68
2021/04/06 03:40:34;;;;;;;2.25;1.15;;;-0.10;69.20;;;;;;5019864;28;20166;-65
2021/04/06 03:43:38;;;;;;;4.47;1.40;;;-0.10;69.30;;;;;;5012197;28;20118;-68
2021/04/06 03:46:04;;;;;;;6.35;1.42;;;-0.10;69.20;;;;;;4988554;28;20188;-66
2021/04/06 03:48:31;;;;;;;4.55;1.10;;;-0.10;69.10;;;;;;5022771;28;20034;-67
2021/04/06 03:50:58;;;;;;;2.35;1.20;;;0.00;69.10;;;;;;5015179;28;20079;-67
2021/04/06 03:53:26;;;;;;;7.20;1.42;;;0.00;69.00;;;;;;5011467;28;20575;-67
2021/04/06 03:56:12;;;;;;;3.38;1.40;;;0.00;69.00;;;;;;5002671;28;20105;-65
2021/04/06 03:58:42;;;;;;;2.70;1.20;;;0.00;69.00;;;;;;5006742;28;20467;-66
2021/04/06 04:01:10;;;;;;;5.85;1.33;;;0.00;68.80;;;;;;5017760;28;20026;-65
2021/04/06 04:03:35;;;;;;;6.70;1.60;;;0.10;68.90;;;;;;5011511;28;20038;-65
2021/04/06 04:06:01;;;;;;;4.57;1.30;;;0.10;69.00;;;;;;5029290;28;20026;-65
2021/04/06 04:08:27;;;;;;;5.80;1.40;;;0.00;69.00;;;;;;5003335;28;20030;-64
2021/04/06 04:10:53;;;;;;;5.55;1.45;;;0.00;68.90;;;;;;4997970;28;20167;-64
2021/04/06 04:13:19;;;;;;;3.80;1.10;;;0.00;69.00;;;;;;5016209;28;20052;-64
2021/04/06 04:15:45;;;;;;;10.23;1.75;;;0.00;69.00;;;;;;5012448;28;20477;-65
2021/04/06 04:18:10;;;;;;;4.57;1.52;;;0.10;69.30;;;;;;5012919;28;20548;-64
2021/04/06 04:20:36;;;;;;;5.75;1.35;;;0.10;69.10;;;;;;5012973;28;20022;-64
2021/04/06 04:23:02;;;;;;;3.42;1.10;;;0.10;69.20;;;;;;5019342;28;20500;-64
2021/04/06 04:25:28;;;;;;;3.10;1.20;;;0.10;69.10;;;;;;5026974;28;20036;-64
2021/04/06 04:27:53;;;;;;;5.30;1.00;;;0.20;69.10;;;;;;5012972;28;20026;-63
2021/04/06 04:30:36;;;;;;;3.97;1.60;;;0.20;68.90;;;;;;5013154;28;20037;-65
2021/04/06 04:33:03;;;;;;;4.40;1.30;;;0.20;69.00;;;;;;5012477;28;20029;-64
2021/04/06 04:35:29;;;;;;;4.88;1.38;;;0.20;68.90;;;;;;5033827;28;20087;-65
2021/04/06 04:37:54;;;;;;;4.60;1.40;;;0.20;68.90;;;;;;5026481;28;20026;-65
2021/04/06 04:40:20;;;;;;;4.30;1.45;;;0.20;68.80;;;;;;5012454;28;20032;-64
2021/04/06 04:42:48;;;;;;;5.43;1.80;;;0.20;69.00;;;;;;5014726;28;20028;-64
2021/04/06 04:45:14;;;;;;;8.32;2.03;;;0.20;69.10;;;;;;5015933;28;20508;-64
2021/04/06 04:47:40;;;;;;;6.60;1.92;;;0.20;69.30;;;;;;5016317;28;20029;-64
2021/04/06 04:50:06;;;;;;;6.00;1.90;;;0.10;69.60;;;;;;5015898;28;20033;-65
2021/04/06 04:52:31;;;;;;;5.22;1.58;;;0.10;69.70;;;;;;5015763;28;20025;-63
2021/04/06 04:54:57;;;;;;;4.18;1.58;;;0.10;69.90;;;;;;5014607;28;20342;-64
2021/04/06 04:57:23;;;;;;;7.22;2.20;;;0.00;70.00;;;;;;5024450;28;20063;-63
2021/04/06 04:59:48;;;;;;;2.95;1.65;;;0.00;70.20;;;;;;5031036;28;20070;-65
2021/04/06 05:02:14;;;;;;;5.82;1.67;;;0.00;70.20;;;;;;5025616;28;20127;-65
2021/04/06 05:04:39;;;;;;;5.43;1.98;;;0.00;70.40;;;;;;5024624;28;20657;-64
2021/04/06 05:07:05;;;;;;;7.10;2.30;;;0.00;70.20;;;;;;5012596;28;20041;-64
2021/04/06 05:09:31;;;;;;;7.57;2.08;;;0.00;70.30;;;;;;4996443;28;20394;-64
2021/04/06 05:11:56;;;;;;;4.30;1.67;;;0.00;70.40;;;;;;5029292;28;20060;-66
2021/04/06 05:14:22;;;;;;;8.20;1.70;;;0.00;70.00;;;;;;5015695;28;20036;-63
2021/04/06 05:16:51;;;;;;;6.07;1.90;;;0.10;70.10;;;;;;5015300;28;20030;-64
2021/04/06 05:19:17;;;;;;;6.22;2.40;;;0.10;70.00;;;;;;5032188;28;20022;-65
2021/04/06 05:21:43;;;;;;;4.82;2.22;;;0.10;70.20;;;;;;5015553;28;20036;-64
2021/04/06 05:24:09;;;;;;;6.28;2.03;;;0.10;70.60;;;;;;5011776;28;20045;-65
2021/04/06 05:26:35;;;;;;;6.55;2.30;;;0.10;70.40;;;;;;5006837;28;20073;-65
2021/04/06 05:29:00;;;;;;;6.78;2.25;;;0.10;70.80;;;;;;5015428;28;20439;-64
2021/04/06 05:31:26;;;;;;;9.05;2.33;;;0.10;70.60;;;;;;5015534;28;20065;-64
2021/04/06 05:33:55;;;;;;;9.48;2.80;;;0.10;70.80;;;;;;5020732;28;20028;-67
2021/04/06 05:36:20;;;;;;;5.70;2.05;;;0.10;70.70;;;;;;5035283;28;20021;-64
2021/04/06 05:38:46;;;;;;;6.75;2.72;;;0.10;70.60;;;;;;5024167;28;20044;-64
2021/04/06 05:41:13;;;;;;;6.18;2.20;;;0.10;70.80;;;;;;5015430;28;20025;-63
2021/04/06 05:43:40;;;;;;;5.40;2.45;;;0.10;71.10;;;;;;5014774;28;20022;-65
2021/04/06 05:46:09;;;;;;;8.65;2.03;;;0.10;71.00;;;;;;5030401;28;20064;-64
2021/04/06 05:48:36;;;;;;;7.05;1.95;;;0.00;71.20;;;;;;5031675;28;20045;-63
2021/04/06 05:51:03;;;;;;;11.07;2.58;;;0.00;71.00;;;;;;5029842;28;20454;-65
2021/04/06 05:53:29;;;;;;;6.47;2.17;;;0.10;71.30;;;;;;4997116;28;20037;-65
2021/04/06 05:55:58;;;;;;;9.93;4.85;;;0.10;71.70;;;;;;5027019;28;20030;-65
2021/04/06 05:58:24;;;;;;;9.43;2.35;;;0.10;71.20;;;;;;5015143;28;20462;-63
2021/04/06 06:00:49;;;;;;;6.18;2.35;;;0.10;71.30;;;;;;5015002;28;20053;-65
2021/04/06 06:03:16;;;;;;;9.63;4.68;;;0.10;71.00;;;;;;5015759;28;20148;-63
2021/04/06 06:05:42;;;;;;;7.35;2.90;;;0.20;71.10;;;;;;5034431;28;20021;-61
2021/04/06 06:08:12;;;;;;;4.50;2.00;;;0.20;71.00;;;;;;5015205;28;20033;-62
2021/04/06 06:10:38;;;;;;;8.70;2.47;;;0.20;70.90;;;;;;5014609;28;20030;-61
2021/04/06 06:13:14;;;;;;;7.20;2.42;;;0.20;70.70;;;;;;5015122;28;20083;-63
2021/04/06 06:15:40;;;;;;;12.32;2.55;;;0.30;70.80;;;;;;5014727;28;20037;-63
2021/04/06 06:18:06;;;;;;;5.55;2.50;;;0.40;70.70;;;;;;5014604;28;20071;-63
2021/04/06 06:20:37;;;;;;;5.68;2.35;;;0.40;71.20;;;;;;5014852;28;20375;-63
2021/04/06 06:23:22;;;;;;;5.75;2.17;;;0.40;70.40;;;;;;5014886;28;20038;-63
2021/04/06 06:26:06;;;;;;;10.82;2.97;;;0.40;70.40;;;;;;5012555;28;20026;-66
2021/04/06 06:28:34;;;;;;;9.35;3.00;;;0.40;70.60;;;;;;5030585;28;20033;-63
2021/04/06 06:31:00;;;;;;;11.77;2.30;;;0.40;70.40;;;;;;5013999;28;20559;-63
2021/04/06 06:33:29;;;;;;;8.05;2.60;;;0.40;70.60;;;;;;5016119;28;20117;-63
2021/04/06 06:35:56;;;;;;;9.52;2.50;;;0.40;70.70;;;;;;5013937;28;20029;-63
2021/04/06 06:38:42;;;;;;;9.05;2.60;;;0.40;70.80;;;;;;5014411;28;20026;-64
2021/04/06 06:41:20;;;;;;;6.32;2.42;;;0.40;70.90;;;;;;5031664;28;20060;-63
2021/04/06 06:43:49;;;;;;;10.20;2.65;;;0.50;70.80;;;;;;5013270;28;20033;-63
2021/04/06 06:46:30;;;;;;;7.47;4.13;;;0.50;70.90;;;;;;5030710;28;20041;-63
2021/04/06 06:48:59;;;;;;;13.65;2.55;;;0.60;71.00;;;;;;5030702;28;20060;-64
2021/04/06 06:51:43;;;;;;;8.30;2.28;;;0.60;70.80;;;;;;5014280;28;20024;-63
2021/04/06 06:54:09;;;;;;;13.05;2.70;;;0.60;70.80;;;;;;5013972;28;20029;-63
2021/04/06 06:56:42;;;;;;;8.50;2.80;;;0.70;70.60;;;;;;5031821;28;20608;-63
2021/04/06 06:59:09;;;;;;;11.73;3.17;;;0.70;70.80;;;;;;5009831;28;20033;-64
2021/04/06 07:01:37;;;;;;;7.05;1.95;;;0.80;70.70;;;;;;5012398;28;20052;-61
2021/04/06 07:04:06;;;;;;;6.95;2.10;;;0.80;71.20;;;;;;5013831;28;20026;-64
2021/04/06 07:06:42;;;;;;;9.15;2.65;;;0.90;70.60;;;;;;5028410;28;20041;-64
2021/04/06 07:09:25;;;;;;;6.53;2.40;;;0.90;70.50;;;;;;5010917;28;20351;-64
2021/04/06 07:12:03;;;;;;;13.77;3.30;;;1.00;70.40;;;;;;5026476;28;20036;-64
2021/04/06 07:14:30;;;;;;;8.52;2.88;;;1.10;70.50;;;;;;5030038;28;20071;-64
2021/04/06 07:16:58;;;;;;;12.48;3.20;;;1.00;70.30;;;;;;5030204;28;20071;-64
2021/04/06 07:19:24;;;;;;;10.20;2.63;;;1.10;70.60;;;;;;5030319;28;20013;-64
2021/04/06 07:21:55;;;;;;;6.95;2.47;;;1.00;70.40;;;;;;5025548;28;20168;-65
2021/04/06 07:24:28;;;;;;;7.28;2.35;;;1.00;71.00;;;;;;5014948;28;20484;-65
2021/04/06 07:26:56;;;;;;;11.73;2.72;;;1.00;70.70;;;;;;5029264;28;20030;-65
2021/04/06 07:29:23;;;;;;;4.35;2.10;;;1.00;70.90;;;;;;5013055;28;20021;-65
2021/04/06 07:31:49;;;;;;;10.48;2.60;;;1.10;70.90;;;;;;5013696;28;20025;-65
2021/04/06 07:34:17;;;;;;;7.13;2.22;;;1.10;71.10;;;;;;5021764;28;20017;-64
2021/04/06 07:36:44;;;;;;;7.63;2.55;;;1.10;71.00;;;;;;5033421;28;20060;-67
2021/04/06 07:39:12;;;;;;;9.85;2.53;;;1.10;70.90;;;;;;5013838;28;20108;-65
2021/04/06 07:41:41;;;;;;;14.65;2.67;;;1.20;70.90;;;;;;5013155;28;20543;-65
2021/04/06 07:44:08;;;;;;;11.63;2.50;;;1.30;70.90;;;;;;5013217;28;20034;-66
2021/04/06 07:46:34;;;;;;;8.48;2.60;;;1.30;70.90;;;;;;5013728;28;20029;-66
2021/04/06 07:49:21;;;;;;;10.77;2.60;;;1.30;70.70;;;;;;5013095;28;20021;-65
2021/04/06 07:51:47;;;;;;;12.55;2.80;;;1.40;70.60;;;;;;5023528;28;20022;-65
2021/04/06 07:54:40;;;;;;;9.30;2.30;;;1.40;70.50;;;;;;5026555;28;20394;-65
2021/04/06 07:57:06;;;;;;;7.28;2.78;;;1.50;70.60;;;;;;5013903;28;20037;-65
2021/04/06 07:59:35;;;;;;;8.43;2.40;;;1.50;70.40;;;;;;5026944;28;20036;-66
2021/04/06 08:02:01;;;;;;;9.20;2.95;;;1.50;70.60;;;;;;5029964;28;20033;-65
2021/04/06 08:04:48;;;;;;;10.43;3.85;;;1.50;70.60;;;;;;5037913;28;20088;-64
2021/04/06 08:07:20;;;;;;;20.45;10.00;;;1.60;70.50;;;;;;5027887;28;20022;-65
2021/04/06 08:09:52;;;;;;;14.02;7.03;;;1.60;70.40;;;;;;5029652;28;20729;-65
2021/04/06 08:12:34;;;;;;;13.93;6.88;;;1.60;70.50;;;;;;5005639;28;20474;-65
2021/04/06 08:15:15;;;;;;;17.67;6.50;;;1.60;70.50;;;;;;5001355;28;20520;-66
2021/04/06 08:17:41;;;;;;;7.28;2.28;;;1.70;70.50;;;;;;5031700;28;20367;-65
2021/04/06 08:20:17;;;;;;;9.45;2.50;;;1.70;70.40;;;;;;5015930;28;20032;-64
2021/04/06 08:22:43;;;;;;;10.80;2.38;;;1.70;70.20;;;;;;5033693;28;20033;-64
2021/04/06 08:25:18;;;;;;;6.40;2.25;;;1.70;70.10;;;;;;5016569;28;20025;-64
2021/04/06 08:28:14;;;;;;;8.38;2.00;;;1.70;70.20;;;;;;5033307;28;20097;-63
2021/04/06 08:30:40;;;;;;;12.43;2.90;;;1.70;70.20;;;;;;4986660;28;20079;-62
2021/04/06 08:33:10;;;;;;;4.63;2.17;;;1.80;70.10;;;;;;5016554;28;20068;-64
2021/04/06 08:35:39;;;;;;;8.50;2.40;;;1.80;70.10;;;;;;5041040;28;20021;-65
2021/04/06 08:38:25;;;;;;;5.10;2.40;;;1.90;70.30;;;;;;5026822;28;20029;-65
2021/04/06 08:40:53;;;;;;;6.20;2.60;;;1.90;69.80;;;;;;5016392;28;20025;-65
2021/04/06 08:43:21;;;;;;;9.57;2.83;;;1.90;69.80;;;;;;5031914;28;20041;-64
2021/04/06 08:45:58;;;;;;;6.32;2.53;;;1.80;69.80;;;;;;5016447;28;20041;-65
2021/04/06 08:48:46;;;;;;;7.68;2.10;;;1.80;69.60;;;;;;5016064;28;20045;-64
2021/04/06 08:51:27;;;;;;;5.65;2.25;;;1.80;69.70;;;;;;5016440;28;20440;-65
2021/04/06 08:53:56;;;;;;;6.93;2.40;;;1.80;69.80;;;;;;5015878;28;20504;-64
2021/04/06 08:56:27;;;;;;;8.55;2.47;;;1.80;69.80;;;;;;5036222;28;20482;-64
2021/04/06 08:59:33;;;;;;;10.18;2.78;;;1.80;69.70;;;;;;5015117;28;20029;-65
2021/04/06 09:02:08;;;;;;;8.40;2.13;;;1.90;69.80;;;;;;5008012;28;20033;-65
2021/04/06 09:04:39;;;;;;;5.90;2.08;;;1.90;69.70;;;;;;5023020;28;20083;-65
2021/04/06 09:07:17;;;;;;;4.35;2.38;;;2.00;69.80;;;;;;5033442;28;20474;-64
2021/04/06 09:09:43;;;;;;;7.03;2.30;;;2.00;69.80;;;;;;5016080;28;20068;-64
2021/04/06 09:12:09;;;;;;;6.15;2.45;;;2.00;69.70;;;;;;5015740;28;20029;-64
2021/04/06 09:14:35;;;;;;;8.32;2.92;;;2.00;69.50;;;;;;5020134;28;20025;-65
2021/04/06 09:17:01;;;;;;;11.50;3.90;;;2.00;69.50;;;;;;5016096;28;20036;-66
2021/04/06 09:19:27;;;;;;;7.85;2.83;;;2.00;69.70;;;;;;5015423;28;20033;-65
2021/04/06 09:21:58;;;;;;;7.80;2.42;;;1.90;69.60;;;;;;5015827;28;20033;-66
2021/04/06 09:24:25;;;;;;;6.95;3.00;;;1.90;69.80;;;;;;5022238;28;20026;-66
2021/04/06 09:26:54;;;;;;;8.30;2.13;;;1.90;69.90;;;;;;5015723;28;20480;-66
2021/04/06 09:29:23;;;;;;;8.88;3.05;;;1.90;69.80;;;;;;5014808;28;20394;-65
2021/04/06 09:32:10;;;;;;;7.93;2.45;;;2.00;70.00;;;;;;5029189;28;20040;-65
2021/04/06 09:34:42;;;;;;;6.78;2.63;;;2.00;70.00;;;;;;5027454;28;20128;-65
2021/04/06 09:37:09;;;;;;;7.82;2.90;;;2.00;70.20;;;;;;5024924;28;20021;-66
2021/04/06 09:39:38;;;;;;;4.70;2.88;;;2.00;70.80;;;;;;5015526;28;20060;-66
2021/04/06 09:42:05;;;;;;;5.68;2.25;;;2.00;70.20;;;;;;5013230;28;20036;-65
2021/04/06 09:44:34;;;;;;;10.48;2.50;;;2.00;70.30;;;;;;5037596;28;20071;-66
2021/04/06 09:47:02;;;;;;;5.63;2.60;;;2.00;70.30;;;;;;5015353;28;20025;-64
2021/04/06 09:49:56;;;;;;;9.68;2.97;;;2.10;70.30;;;;;;5015589;28;20026;-64
2021/04/06 09:52:24;;;;;;;9.00;2.95;;;2.00;70.10;;;;;;5014988;28;20091;-64
2021/04/06 09:54:50;;;;;;;8.25;3.45;;;2.10;70.10;;;;;;5011124;28;20037;-65
2021/04/06 09:57:17;;;;;;;6.57;2.63;;;2.10;70.00;;;;;;5032521;28;20359;-65
2021/04/06 09:59:45;;;;;;;8.43;2.88;;;2.20;70.00;;;;;;5015044;28;20378;-65
2021/04/06 10:02:19;;;;;;;10.93;3.15;;;2.20;69.80;;;;;;5001705;28;20526;-64
2021/04/06 10:04:46;;;;;;;9.95;3.42;;;2.20;69.80;;;;;;5016903;28;20036;-65
2021/04/06 10:07:17;;;;;;;6.57;2.83;;;2.20;69.70;;;;;;5023584;28;20057;-66
2021/04/06 10:09:57;;;;;;;8.05;2.90;;;2.20;69.50;;;;;;5014706;28;20563;-65
2021/04/06 10:12:25;;;;;;;8.20;2.60;;;2.30;69.80;;;;;;5013782;28;20033;-65
2021/04/06 10:14:51;;;;;;;9.38;2.40;;;2.40;69.50;;;;;;5014092;28;20067;-65
2021/04/06 10:17:20;;;;;;;4.82;2.33;;;2.40;69.60;;;;;;5012383;28;20482;-65
2021/04/06 10:20:01;;;;;;;7.90;2.70;;;2.60;69.30;;;;;;5021566;28;20037;-66
2021/04/06 10:22:38;;;;;;;6.93;2.80;;;2.60;69.40;;;;;;5025447;28;20147;-65
2021/04/06 10:25:05;;;;;;;8.68;2.92;;;2.70;69.40;;;;;;5013859;28;20036;-65
2021/04/06 10:27:47;;;;;;;8.57;2.95;;;2.80;69.40;;;;;;5013801;28;20106;-66
2021/04/06 10:30:41;;;;;;;8.25;2.80;;;2.80;68.90;;;;;;5014458;28;20082;-64
2021/04/06 10:33:16;;;;;;;10.93;2.95;;;2.90;68.80;;;;;;5013083;28;20512;-65
2021/04/06 10:35:55;;;;;;;7.05;2.72;;;2.80;68.60;;;;;;5032736;28;20083;-65
2021/04/06 10:38:22;;;;;;;9.43;3.38;;;2.80;68.30;;;;;;5021756;28;20555;-65
2021/04/06 10:40:57;;;;;;;5.82;2.92;;;2.70;68.40;;;;;;5013808;28;20068;-64
2021/04/06 10:43:23;;;;;;;11.23;2.90;;;2.60;68.80;;;;;;5014159;28;20029;-65
2021/04/06 10:45:52;;;;;;;10.18;2.60;;;2.60;69.20;;;;;;5008810;28;20032;-65
2021/04/06 10:48:23;;;;;;;7.43;2.75;;;2.70;69.30;;;;;;5014007;28;20494;-65
2021/04/06 10:50:53;;;;;;;13.15;2.90;;;2.70;69.20;;;;;;5014083;28;20036;-64
2021/04/06 10:53:33;;;;;;;10.82;2.70;;;2.80;69.00;;;;;;5013905;28;20131;-65
2021/04/06 10:56:02;;;;;;;9.15;2.42;;;3.00;69.10;;;;;;5013556;28;20668;-64
2021/04/06 10:58:32;;;;;;;8.32;3.03;;;3.30;69.20;;;;;;5041885;28;20036;-65
2021/04/06 11:01:11;;;;;;;9.18;2.63;;;3.60;68.80;;;;;;5022038;28;20033;-64
2021/04/06 11:03:46;;;;;;;7.28;2.35;;;3.70;68.20;;;;;;5015784;28;20024;-64
2021/04/06 11:06:14;;;;;;;4.85;1.98;;;3.80;67.90;;;;;;5029097;28;20031;-66
2021/04/06 11:08:43;;;;;;;6.25;2.42;;;3.90;67.50;;;;;;5050392;28;20025;-65
2021/04/06 11:11:48;;;;;;;7.22;2.42;;;3.90;67.20;;;;;;5022229;28;20029;-65
2021/04/06 11:14:19;;;;;;;9.93;2.30;;;3.90;67.00;;;;;;4951045;29;20034;-65
2021/04/06 11:16:45;;;;;;;7.20;2.25;;;3.90;66.70;;;;;;4934999;29;20035;-65
2021/04/06 11:19:17;;;;;;;5.85;2.33;;;3.80;67.00;;;;;;4985048;28;20040;-65
2021/04/06 11:21:50;;;;;;;5.80;2.00;;;4.00;67.30;;;;;;5013477;28;20033;-65
2021/04/06 11:24:17;;;;;;;7.57;2.47;;;4.30;66.80;;;;;;5013477;28;20029;-65
2021/04/06 11:26:43;;;;;;;9.80;2.70;;;4.40;66.70;;;;;;5013729;28;20030;-65
2021/04/06 11:29:12;;;;;;;4.45;2.28;;;4.50;66.80;;;;;;5029564;28;20029;-66
2021/04/06 11:31:39;;;;;;;6.30;2.35;;;4.50;66.90;;;;;;5024930;28;20033;-65
2021/04/06 11:34:07;;;;;;;6.10;2.78;;;4.30;67.10;;;;;;5031260;28;20515;-66
2021/04/06 11:36:34;;;;;;;12.73;3.72;;;4.10;67.60;;;;;;5018625;28;20033;-68
2021/04/06 11:39:02;;;;;;;8.98;2.90;;;3.90;68.30;;;;;;5026966;28;20075;-65
2021/04/06 11:41:28;;;;;;;12.25;3.15;;;3.60;68.50;;;;;;5029669;28;20026;-65
2021/04/06 11:43:53;;;;;;;9.65;3.10;;;3.40;69.50;;;;;;5002134;28;20025;-65
2021/04/06 11:46:19;;;;;;;9.73;3.65;;;3.10;70.20;;;;;;5013122;28;20449;-63
2021/04/06 11:48:45;;;;;;;10.77;3.97;;;2.80;71.30;;;;;;5023338;28;20104;-65
2021/04/06 11:51:13;;;;;;;12.02;4.20;;;2.60;71.60;;;;;;5014400;28;20486;-65
2021/04/06 11:53:39;;;;;;;10.40;3.58;;;2.40;73.30;;;;;;5033704;28;20040;-66
2021/04/06 11:56:05;;;;;;;15.48;4.30;;;2.20;72.90;;;;;;5033543;28;20120;-64
2021/04/06 11:58:31;;;;;;;11.38;4.22;;;2.10;73.50;;;;;;5017484;28;20036;-64
2021/04/06 12:00:57;;;;;;;12.10;3.92;;;2.00;74.00;;;;;;5017372;28;20025;-65
2021/04/06 12:03:22;;;;;;;11.35;3.92;;;1.90;74.00;;;;;;5069038;22;20044;-83
2021/04/06 12:05:48;;;;;;;14.73;4.90;;;1.90;74.30;;;;;;5064823;28;20033;-86
2021/04/06 12:08:13;;;;;;;11.57;4.35;;;2.00;74.50;;;;;;5058090;28;20046;-86
2021/04/06 12:10:39;;;;;;;14.35;4.70;;;2.00;74.20;;;;;;5066070;28;20051;-86
2021/04/06 12:13:05;;;;;;;12.00;4.85;;;2.10;74.30;;;;;;5066260;28;20280;-86
2021/04/06 12:15:30;;;;;;;14.10;5.60;;;2.10;74.60;;;;;;5065632;28;20543;-86
2021/04/06 12:17:56;;;;;;;15.45;5.47;;;2.10;74.40;;;;;;5065693;28;20120;-86
2021/04/06 12:20:22;;;;;;;14.32;5.07;;;2.10;74.50;;;;;;5066203;28;20025;-86
2021/04/06 12:22:47;;;;;;;16.20;6.47;;;2.20;74.60;;;;;;5064659;28;20037;-86
2021/04/06 12:25:13;;;;;;;15.10;4.78;;;2.20;74.80;;;;;;5066936;28;20024;-85
2021/04/06 12:27:39;;;;;;;18.90;4.60;;;2.10;74.70;;;;;;5066410;28;20056;-86
2021/04/06 12:30:06;;;;;;;23.42;8.32;;;2.10;74.80;;;;;;5068036;28;20037;-86
2021/04/06 12:32:32;;;;;;;16.05;6.13;;;2.20;74.90;;;;;;5066693;28;20115;-86
2021/04/06 12:34:58;;;;;;;11.73;4.80;;;2.10;74.60;;;;;;5061118;28;20518;-86
2021/04/06 12:37:24;;;;;;;18.30;6.35;;;2.40;74.90;;;;;;5058357;28;20024;-87
2021/04/06 12:39:50;;;;;;;13.15;5.45;;;2.60;75.10;;;;;;5062588;28;20025;-86
2021/04/06 12:42:16;;;;;;;14.30;6.28;;;2.80;75.20;;;;;;5065007;28;20032;-86
2021/04/06 12:44:42;;;;;;;12.90;5.43;;;2.80;75.80;;;;;;5066047;28;20088;-86
2021/04/06 12:47:07;;;;;;;18.80;6.10;;;2.80;75.30;;;;;;5051756;28;20439;-85
2021/04/06 12:49:33;;;;;;;13.77;5.60;;;2.80;75.80;;;;;;5053865;28;20021;-86
2021/04/06 12:51:59;;;;;;;16.02;5.53;;;2.70;75.80;;;;;;5057718;28;20021;-86
2021/04/06 12:54:25;;;;;;;14.85;5.18;;;2.60;75.90;;;;;;5056791;28;20108;-86
2021/04/06 12:56:51;;;;;;;11.82;4.97;;;2.40;76.10;;;;;;5053391;28;20030;-86
2021/04/06 12:59:17;;;;;;;13.82;6.22;;;2.30;76.60;;;;;;5058275;28;20060;-86
2021/04/06 13:01:43;;;;;;;20.65;5.38;;;2.30;76.50;;;;;;5058787;28;20021;-86
2021/04/06 13:04:08;;;;;;;23.40;5.95;;;2.40;77.30;;;;;;5061019;28;20029;-86
2021/04/06 13:06:37;;;;;;;22.15;5.75;;;2.50;76.90;;;;;;5062675;28;20049;-86